createdAt,value
2023-04-28T00:00:39.249Z,8.48
2023-04-28T00:03:07.079Z,8.51
2023-04-28T00:05:34.902Z,8.11
2023-04-28T00:08:03.333Z,8.41
2023-04-28T00:10:32.129Z,8.15
2023-04-28T00:12:59.889Z,8.33
2023-04-28T00:15:27.688Z,7.99
2023-04-28T00:17:56.933Z,7.92
2023-04-28T00:20:24.671Z,7.12
2023-04-28T00:22:52.377Z,7.13
2023-04-28T00:25:20.109Z,7.21
2023-04-28T00:27:47.832Z,7.18
2023-04-28T00:30:15.844Z,7.26
2023-04-28T00:32:43.589Z,7.39
2023-04-28T00:35:12.710Z,7.57
2023-04-28T00:37:40.638Z,7.36
2023-04-28T00:40:09.493Z,7.08
2023-04-28T00:42:37.380Z,6.84
2023-04-28T00:45:06.573Z,6.38
2023-04-28T00:47:34.740Z,7.11
2023-04-28T00:50:02.972Z,6.69
2023-04-28T00:52:32.568Z,6.76
2023-04-28T00:55:00.612Z,7.47
2023-04-28T00:57:28.328Z,6.98
2023-04-28T00:59:56.022Z,6.82
2023-04-28T01:02:24.576Z,6.42
2023-04-28T01:04:54.343Z,6.91
2023-04-28T01:07:22.381Z,7.09
2023-04-28T01:09:51.468Z,7.28
2023-04-28T01:12:19.185Z,6.90
2023-04-28T01:14:47.412Z,6.91
2023-04-28T01:17:15.601Z,7.04
2023-04-28T01:19:43.360Z,6.88
2023-04-28T01:22:14.129Z,7.07
2023-04-28T01:24:43.271Z,7.14
2023-04-28T01:27:11.387Z,7.02
2023-04-28T01:29:39.097Z,7.02
2023-04-28T01:32:06.901Z,6.78
2023-04-28T01:34:34.649Z,6.97
2023-04-28T01:37:02.400Z,6.62
2023-04-28T01:39:30.145Z,6.89
2023-04-28T01:41:59.262Z,6.95
2023-04-28T01:44:27.204Z,6.39
2023-04-28T01:46:54.991Z,6.38
2023-04-28T01:49:22.857Z,6.95
2023-04-28T01:51:50.719Z,6.25
2023-04-28T01:54:18.704Z,6.78
2023-04-28T01:56:46.664Z,6.72
2023-04-28T01:59:16.191Z,6.51
2023-04-28T02:01:43.998Z,6.13
2023-04-28T02:04:11.793Z,6.06
2023-04-28T02:06:39.589Z,5.55
2023-04-28T02:09:07.323Z,5.76
2023-04-28T02:11:35.063Z,5.83
2023-04-28T02:14:02.807Z,5.55
2023-04-28T02:16:33.240Z,6.35
2023-04-28T02:19:01.062Z,6.10
2023-04-28T02:21:28.931Z,6.65
2023-04-28T02:23:56.689Z,6.67
2023-04-28T02:26:24.435Z,6.57
2023-04-28T02:28:52.237Z,6.37
2023-04-28T02:31:20.181Z,6.23
2023-04-28T02:33:49.392Z,6.12
2023-04-28T02:36:17.130Z,6.28
2023-04-28T02:38:44.994Z,6.41
2023-04-28T02:41:13.149Z,6.54
2023-04-28T02:43:40.888Z,6.66
2023-04-28T02:46:09.043Z,6.63
2023-04-28T02:48:37.359Z,6.72
2023-04-28T02:51:06.727Z,6.93
2023-04-28T02:53:34.429Z,6.84
2023-04-28T02:56:04.429Z,6.70
2023-04-28T02:58:32.374Z,6.50
2023-04-28T03:01:00.196Z,6.57
2023-04-28T03:03:28.147Z,6.70
2023-04-28T03:05:56.926Z,6.66
2023-04-28T03:08:26.253Z,6.03
2023-04-28T03:10:54.005Z,5.88
2023-04-28T03:13:21.739Z,6.32
2023-04-28T03:15:49.440Z,6.43
2023-04-28T03:18:17.360Z,6.22
2023-04-28T03:20:45.127Z,6.31
2023-04-28T03:23:12.845Z,5.88
2023-04-28T03:25:41.889Z,6.17
2023-04-28T03:28:10.742Z,5.88
2023-04-28T03:30:38.470Z,6.07
2023-04-28T03:33:06.870Z,6.11
2023-04-28T03:35:34.716Z,6.09
2023-04-28T03:38:02.464Z,6.17
2023-04-28T03:40:30.196Z,6.31
2023-04-28T03:42:59.770Z,5.86
2023-04-28T03:45:27.544Z,5.74
2023-04-28T03:47:55.282Z,5.97
2023-04-28T03:50:24.764Z,6.43
2023-04-28T03:52:53.830Z,6.16
2023-04-28T03:55:21.723Z,5.93
2023-04-28T03:57:49.502Z,6.13
2023-04-28T04:00:19.052Z,6.00
2023-04-28T04:02:46.913Z,5.98
2023-04-28T04:05:15.060Z,6.03
2023-04-28T04:07:42.881Z,6.41
2023-04-28T04:10:11.111Z,6.32
2023-04-28T04:12:38.799Z,6.23
2023-04-28T04:15:07.797Z,5.54
2023-04-28T04:17:36.965Z,5.40
2023-04-28T04:20:05.062Z,5.64
2023-04-28T04:22:32.782Z,5.12
2023-04-28T04:25:00.552Z,5.45
2023-04-28T04:27:28.381Z,5.22
2023-04-28T04:29:56.156Z,5.33
2023-04-28T04:32:24.017Z,5.30
2023-04-28T04:34:53.136Z,5.25
2023-04-28T04:37:20.954Z,5.42
2023-04-28T04:39:48.690Z,5.51
2023-04-28T04:42:24.724Z,5.50
2023-04-28T04:44:53.457Z,5.77
2023-04-28T04:47:21.190Z,5.85
2023-04-28T04:49:49.867Z,6.00
2023-04-28T04:52:19.853Z,6.62
2023-04-28T04:54:47.596Z,7.13
2023-04-28T04:57:15.322Z,7.31
2023-04-28T04:59:43.062Z,7.56
2023-04-28T05:02:11.023Z,7.76
2023-04-28T05:04:38.948Z,7.56
2023-04-28T05:07:06.818Z,7.86
2023-04-28T05:09:36.017Z,8.40
2023-04-28T05:12:03.802Z,8.55
2023-04-28T05:14:31.658Z,8.92
2023-04-28T05:16:59.585Z,8.61
2023-04-28T05:19:27.481Z,8.24
2023-04-28T05:21:55.248Z,7.92
2023-04-28T05:24:23.968Z,8.38
2023-04-28T05:26:54.112Z,8.29
2023-04-28T05:29:22.024Z,8.28
2023-04-28T05:31:49.880Z,8.50
2023-04-28T05:34:18.054Z,8.75
2023-04-28T05:36:46.248Z,8.46
2023-04-28T05:39:14.040Z,8.95
2023-04-28T05:41:41.831Z,8.80
2023-04-28T05:44:11.193Z,8.63
2023-04-28T05:46:39.100Z,8.46
2023-04-28T05:49:06.978Z,8.76
2023-04-28T05:51:34.780Z,9.11
2023-04-28T05:54:02.564Z,9.40
2023-04-28T05:56:30.523Z,8.98
2023-04-28T05:58:58.636Z,9.08
2023-04-28T06:01:27.824Z,9.51
2023-04-28T06:03:58.102Z,9.77
2023-04-28T06:06:26.533Z,9.69
2023-04-28T06:08:54.550Z,9.82
2023-04-28T06:11:22.917Z,9.80
2023-04-28T06:13:51.321Z,10.24
2023-04-28T06:16:19.418Z,9.76
2023-04-28T06:18:49.800Z,10.09
2023-04-28T06:21:18.041Z,9.95
2023-04-28T06:23:46.037Z,10.24
2023-04-28T06:26:14.768Z,10.44
2023-04-28T06:28:43.935Z,10.45
2023-04-28T06:31:11.658Z,10.38
2023-04-28T06:33:39.430Z,10.62
2023-04-28T06:36:09.271Z,10.81
2023-04-28T06:38:37.508Z,10.11
2023-04-28T06:41:05.367Z,10.68
2023-04-28T06:43:33.441Z,10.26
2023-04-28T06:46:01.401Z,9.95
2023-04-28T06:48:29.213Z,10.36
2023-04-28T06:50:56.983Z,11.22
2023-04-28T06:53:26.047Z,11.24
2023-04-28T06:55:53.862Z,10.47
2023-04-28T06:58:21.930Z,11.02
2023-04-28T07:00:49.791Z,10.96
2023-04-28T07:03:17.692Z,11.45
2023-04-28T07:05:45.502Z,11.03
2023-04-28T07:08:13.423Z,11.41
2023-04-28T07:10:43.035Z,11.48
2023-04-28T07:13:11.159Z,11.56
2023-04-28T07:15:39.238Z,11.14
2023-04-28T07:18:07.506Z,11.76
2023-04-28T07:20:35.435Z,11.54
2023-04-28T07:23:03.175Z,11.53
2023-04-28T07:25:30.970Z,12.00
2023-04-28T07:28:00.187Z,12.08
2023-04-28T07:30:28.480Z,13.01
2023-04-28T07:32:56.563Z,12.93
2023-04-28T07:35:24.496Z,13.07
2023-04-28T07:37:52.428Z,13.21
2023-04-28T07:40:20.914Z,13.72
2023-04-28T07:42:48.991Z,12.77
2023-04-28T07:45:18.159Z,12.76
2023-04-28T07:47:45.964Z,13.20
2023-04-28T07:50:13.797Z,12.37
2023-04-28T07:52:41.498Z,12.45
2023-04-28T07:55:09.789Z,13.20
2023-04-28T07:57:37.946Z,13.05
2023-04-28T08:00:07.039Z,13.01
2023-04-28T08:02:36.315Z,13.08
2023-04-28T08:05:04.498Z,12.47
2023-04-28T08:07:32.367Z,12.80
2023-04-28T08:10:01.127Z,13.19
2023-04-28T08:12:28.854Z,13.15
2023-04-28T08:14:56.667Z,13.84
2023-04-28T08:17:24.725Z,13.83
2023-04-28T08:19:53.859Z,14.03
2023-04-28T08:22:21.586Z,13.39
2023-04-28T08:24:49.272Z,13.76
2023-04-28T08:27:17.075Z,13.27
2023-04-28T08:29:44.809Z,13.50
2023-04-28T08:32:12.595Z,13.83
2023-04-28T08:34:40.275Z,13.71
2023-04-28T08:37:09.424Z,14.46
2023-04-28T08:39:37.324Z,13.79
2023-04-28T08:42:05.754Z,14.11
2023-04-28T08:44:38.594Z,14.61
2023-04-28T08:47:13.498Z,15.18
2023-04-28T08:49:41.936Z,15.55
2023-04-28T08:52:13.998Z,14.37
2023-04-28T08:54:42.103Z,14.49
2023-04-28T08:57:10.933Z,14.76
2023-04-28T08:59:41.082Z,14.61
2023-04-28T09:02:09.626Z,14.68
2023-04-28T09:04:37.740Z,14.58
2023-04-28T09:07:13.708Z,14.60
2023-04-28T09:09:42.011Z,14.69
2023-04-28T09:12:09.775Z,14.63
2023-04-28T09:14:38.981Z,15.32
2023-04-28T09:17:12.197Z,15.90
2023-04-28T09:19:42.908Z,15.24
2023-04-28T09:22:25.684Z,14.87
2023-04-28T09:24:56.205Z,15.28
2023-04-28T09:27:28.972Z,15.43
2023-04-28T09:29:56.865Z,15.82
2023-04-28T09:32:25.960Z,16.04
2023-04-28T09:34:56.811Z,16.16
2023-04-28T09:37:27.174Z,15.36
2023-04-28T09:39:56.512Z,15.95
2023-04-28T09:42:34.898Z,15.73
2023-04-28T09:45:03.472Z,16.45
2023-04-28T09:47:33.345Z,17.25
2023-04-28T09:50:03.004Z,16.70
2023-04-28T09:52:30.828Z,17.00
2023-04-28T09:55:01.831Z,17.20
2023-04-28T09:57:32.352Z,16.54
2023-04-28T10:00:00.964Z,17.08
2023-04-28T10:05:00.401Z,17.64
2023-04-28T10:07:30.753Z,17.37
2023-04-28T10:10:00.132Z,18.20
2023-04-28T10:12:28.543Z,18.85
2023-04-28T10:14:57.187Z,19.56
2023-04-28T10:17:27.368Z,19.73
2023-04-28T10:19:55.774Z,21.07
2023-04-28T10:22:38.135Z,19.33
2023-04-28T10:25:28.634Z,19.18
2023-04-28T10:27:58.668Z,19.73
2023-04-28T10:30:29.844Z,19.91
2023-04-28T10:33:29.678Z,20.33
2023-04-28T10:35:57.871Z,20.12
2023-04-28T10:38:25.639Z,19.68
2023-04-28T10:40:55.423Z,19.97
2023-04-28T10:43:39.347Z,20.59
2023-04-28T10:46:08.661Z,20.45
2023-04-28T10:49:06.902Z,20.48
2023-04-28T10:51:35.365Z,19.75
2023-04-28T10:54:23.761Z,20.90
2023-04-28T10:57:23.490Z,20.42
2023-04-28T10:59:52.316Z,21.33
2023-04-28T11:02:43.815Z,19.95
2023-04-28T11:05:14.476Z,20.98
2023-04-28T11:07:42.785Z,20.93
2023-04-28T11:10:10.535Z,21.19
2023-04-28T11:13:18.127Z,23.26
2023-04-28T11:16:04.196Z,21.34
2023-04-28T11:18:39.316Z,20.26
2023-04-28T11:21:07.491Z,20.05
2023-04-28T11:23:35.412Z,20.80
2023-04-28T11:26:03.549Z,21.29
2023-04-28T11:28:32.645Z,20.97
2023-04-28T11:31:12.502Z,20.98
2023-04-28T11:33:42.160Z,19.43
2023-04-28T11:36:23.674Z,20.49
2023-04-28T11:38:51.403Z,21.61
2023-04-28T11:41:19.326Z,21.03
2023-04-28T11:43:48.542Z,20.54
2023-04-28T11:46:20.666Z,20.49
2023-04-28T11:48:49.008Z,19.13
2023-04-28T11:51:33.814Z,19.26
2023-04-28T11:54:02.509Z,19.52
2023-04-28T11:56:30.723Z,19.60
2023-04-28T11:59:08.113Z,19.42
2023-04-28T12:01:44.939Z,20.74
2023-04-28T12:04:14.239Z,20.02
2023-04-28T12:06:42.572Z,20.10
2023-04-28T12:09:17.329Z,20.50
2023-04-28T12:11:58.436Z,20.06
2023-04-28T12:14:27.577Z,20.02
2023-04-28T12:16:55.477Z,18.90
2023-04-28T12:19:23.341Z,19.05
2023-04-28T12:22:02.025Z,19.09
2023-04-28T12:24:30.124Z,19.37
2023-04-28T12:27:16.944Z,19.00
2023-04-28T12:29:47.236Z,18.65
2023-04-28T12:32:15.636Z,18.49
2023-04-28T12:34:45.306Z,18.95
2023-04-28T12:37:13.757Z,19.87
2023-04-28T12:39:43.227Z,19.64
2023-04-28T12:42:11.785Z,20.06
2023-04-28T12:44:40.819Z,20.29
2023-04-28T12:47:11.859Z,20.51
2023-04-28T12:49:39.654Z,19.94
2023-04-28T12:52:07.890Z,20.07
2023-04-28T12:54:35.786Z,20.04
2023-04-28T12:57:04.110Z,19.06
2023-04-28T12:59:32.710Z,20.19
2023-04-28T13:02:00.629Z,20.34
2023-04-28T13:04:31.226Z,20.04
2023-04-28T13:06:59.601Z,19.82
2023-04-28T13:09:27.958Z,19.73
2023-04-28T13:11:55.651Z,20.23
2023-04-28T13:14:24.072Z,19.53
2023-04-28T13:16:53.205Z,19.02
2023-04-28T13:19:21.008Z,20.18
2023-04-28T13:21:50.193Z,20.39
2023-04-28T13:24:17.924Z,19.01
2023-04-28T13:26:45.765Z,19.16
2023-04-28T13:29:14.399Z,19.05
2023-04-28T13:31:42.336Z,20.39
2023-04-28T13:34:15.841Z,20.30
2023-04-28T13:36:43.862Z,20.01
2023-04-28T13:39:14.590Z,19.89
2023-04-28T13:41:42.784Z,18.62
2023-04-28T13:44:10.689Z,18.44
2023-04-28T13:46:38.485Z,18.61
2023-04-28T13:49:06.262Z,18.38
2023-04-28T13:51:34.013Z,19.01
2023-04-28T13:54:04.391Z,19.15
2023-04-28T13:56:33.812Z,19.30
2023-04-28T13:59:01.664Z,18.43
2023-04-28T14:01:29.548Z,18.84
2023-04-28T14:03:57.768Z,18.22
2023-04-28T14:06:26.095Z,19.29
2023-04-28T14:08:53.930Z,17.86
2023-04-28T14:11:22.619Z,18.48
2023-04-28T14:13:51.747Z,18.79
2023-04-28T14:16:19.705Z,19.43
2023-04-28T14:18:47.478Z,19.30
2023-04-28T14:21:15.211Z,19.13
2023-04-28T14:23:42.959Z,18.95
2023-04-28T14:26:10.689Z,19.25
2023-04-28T14:28:38.551Z,20.02
2023-04-28T14:31:08.732Z,19.87
2023-04-28T14:33:37.047Z,19.64
2023-04-28T14:36:05.367Z,19.19
2023-04-28T14:38:33.214Z,18.79
2023-04-28T14:41:02.325Z,19.20
2023-04-28T14:43:30.060Z,18.94
2023-04-28T14:45:58.566Z,18.26
2023-04-28T14:48:27.682Z,17.53
2023-04-28T14:50:55.406Z,18.25
2023-04-28T14:53:23.661Z,18.06
2023-04-28T14:55:51.645Z,18.20
2023-04-28T14:58:19.339Z,18.51
2023-04-28T15:00:47.558Z,18.48
2023-04-28T15:03:15.522Z,18.76
2023-04-28T15:05:47.264Z,17.54
2023-04-28T15:08:15.061Z,17.93
2023-04-28T15:10:42.882Z,18.07
2023-04-28T15:13:10.643Z,18.08
2023-04-28T15:15:38.451Z,17.95
2023-04-28T15:18:06.199Z,18.12
2023-04-28T15:20:34.366Z,18.69
2023-04-28T15:23:03.518Z,17.96
2023-04-28T15:25:31.313Z,17.85
2023-04-28T15:27:59.080Z,17.73
2023-04-28T15:30:26.892Z,18.18
2023-04-28T15:32:54.650Z,18.38
2023-04-28T15:35:22.667Z,18.40
2023-04-28T15:37:52.121Z,18.11
2023-04-28T15:40:21.786Z,18.76
2023-04-28T15:42:51.803Z,18.18
2023-04-28T15:45:20.580Z,18.01
2023-04-28T15:47:50.223Z,18.17
2023-04-28T15:50:23.010Z,18.29
2023-04-28T15:52:51.295Z,18.36
2023-04-28T15:55:22.316Z,18.20
2023-04-28T15:57:50.106Z,18.17
2023-04-28T16:00:17.999Z,18.08
2023-04-28T16:02:46.297Z,18.11
2023-04-28T16:05:14.470Z,18.33
2023-04-28T16:07:42.368Z,17.53
2023-04-28T16:10:11.903Z,18.60
2023-04-28T16:12:42.104Z,17.85
2023-04-28T16:15:12.657Z,17.97
2023-04-28T16:17:41.144Z,17.63
2023-04-28T16:20:10.950Z,17.84
2023-04-28T16:22:40.029Z,18.30
2023-04-28T16:25:09.262Z,17.47
2023-04-28T16:27:37.698Z,17.73
2023-04-28T16:30:08.235Z,17.82
2023-04-28T16:32:36.567Z,17.40
2023-04-28T16:35:06.267Z,17.62
2023-04-28T16:37:36.347Z,18.00
2023-04-28T16:40:04.619Z,17.14
2023-04-28T16:42:32.335Z,17.33
2023-04-28T16:45:00.073Z,17.27
2023-04-28T16:47:31.104Z,17.58
2023-04-28T16:49:58.959Z,17.73
2023-04-28T16:52:27.561Z,17.41
2023-04-28T16:54:56.013Z,17.48
2023-04-28T16:57:23.771Z,17.23
2023-04-28T16:59:52.212Z,17.54
2023-04-28T17:02:20.180Z,17.71
2023-04-28T17:04:49.319Z,17.08
2023-04-28T17:07:17.472Z,16.65
2023-04-28T17:09:45.530Z,16.12
2023-04-28T17:12:13.317Z,15.65
2023-04-28T17:14:41.559Z,16.11
2023-04-28T17:17:09.272Z,15.92
2023-04-28T17:19:37.537Z,15.53
2023-04-28T17:22:06.637Z,15.99
2023-04-28T17:24:34.485Z,15.46
2023-04-28T17:27:02.282Z,15.33
2023-04-28T17:29:29.998Z,15.76
2023-04-28T17:31:57.763Z,15.75
2023-04-28T17:34:25.484Z,15.25
2023-04-28T17:36:53.195Z,14.83
2023-04-28T17:39:22.357Z,15.17
2023-04-28T17:41:50.058Z,14.88
2023-04-28T17:44:17.769Z,14.76
2023-04-28T17:46:45.617Z,15.78
2023-04-28T17:49:13.356Z,14.10
2023-04-28T17:51:41.093Z,14.49
2023-04-28T17:54:09.662Z,14.98
2023-04-28T17:56:39.403Z,14.70
2023-04-28T17:59:08.834Z,14.85
2023-04-28T18:01:36.848Z,14.15
2023-04-28T18:04:04.754Z,14.15
2023-04-28T18:06:32.460Z,14.07
2023-04-28T18:09:00.186Z,14.44
2023-04-28T18:11:28.145Z,14.29
2023-04-28T18:13:58.712Z,14.06
2023-04-28T18:16:26.966Z,14.33
2023-04-28T18:18:54.723Z,13.93
2023-04-28T18:21:22.477Z,14.30
2023-04-28T18:23:50.205Z,14.11
2023-04-28T18:26:17.913Z,14.04
2023-04-28T18:28:48.048Z,14.06
2023-04-28T18:31:17.273Z,14.28
2023-04-28T18:33:45.147Z,13.94
2023-04-28T18:36:13.018Z,13.68
2023-04-28T18:38:41.271Z,14.43
2023-04-28T18:41:16.168Z,13.92
2023-04-28T18:43:44.493Z,13.83
2023-04-28T18:46:12.262Z,13.79
2023-04-28T18:48:42.118Z,13.25
2023-04-28T18:51:10.073Z,13.59
2023-04-28T18:53:38.325Z,13.76
2023-04-28T18:56:06.255Z,13.48
2023-04-28T18:58:34.049Z,13.57
2023-04-28T19:01:01.819Z,13.75
2023-04-28T19:03:30.371Z,13.55
2023-04-28T19:05:59.498Z,13.49
2023-04-28T19:08:27.304Z,13.57
2023-04-28T19:10:55.025Z,13.83
2023-04-28T19:13:22.815Z,13.02
2023-04-28T19:15:53.554Z,13.67
2023-04-28T19:18:22.479Z,13.26
2023-04-28T19:20:52.197Z,13.45
2023-04-28T19:23:21.636Z,12.91
2023-04-28T19:25:49.468Z,12.59
2023-04-28T19:28:17.283Z,12.72
2023-04-28T19:30:45.053Z,12.86
2023-04-28T19:33:12.820Z,12.23
2023-04-28T19:35:41.670Z,12.45
2023-04-28T19:38:09.542Z,12.12
2023-04-28T19:40:39.757Z,12.38
2023-04-28T19:43:07.527Z,12.16
2023-04-28T19:45:36.040Z,12.24
2023-04-28T19:48:04.043Z,12.12
2023-04-28T19:50:32.297Z,11.65
2023-04-28T19:53:00.061Z,11.45
2023-04-28T19:55:27.919Z,11.45
2023-04-28T19:57:57.500Z,11.54
2023-04-28T20:00:25.597Z,11.78
2023-04-28T20:02:53.462Z,11.51
2023-04-28T20:05:21.769Z,11.60
2023-04-28T20:07:49.862Z,11.37
2023-04-28T20:10:19.204Z,11.28
2023-04-28T20:12:46.991Z,11.76
2023-04-28T20:15:16.783Z,11.53
2023-04-28T20:17:44.695Z,11.23
2023-04-28T20:20:12.858Z,11.46
2023-04-28T20:22:41.399Z,11.35
2023-04-28T20:25:10.758Z,11.19
2023-04-28T20:27:38.665Z,10.83
2023-04-28T20:30:07.944Z,11.03
2023-04-28T20:32:38.338Z,10.91
2023-04-28T20:35:07.258Z,10.92
2023-04-28T20:37:35.203Z,11.14
2023-04-28T20:40:03.143Z,11.00
2023-04-28T20:42:30.880Z,10.67
2023-04-28T20:44:58.718Z,10.97
2023-04-28T20:47:26.528Z,10.70
2023-04-28T20:49:55.713Z,10.84
2023-04-28T20:52:23.472Z,10.69
2023-04-28T20:54:52.134Z,10.60
2023-04-28T20:57:19.860Z,10.89
2023-04-28T20:59:47.602Z,10.78
2023-04-28T21:02:15.504Z,10.42
2023-04-28T21:04:43.307Z,10.49
2023-04-28T21:07:12.417Z,10.37
2023-04-28T21:09:42.099Z,10.44
2023-04-28T21:12:09.905Z,10.59
2023-04-28T21:14:37.657Z,10.48
2023-04-28T21:17:05.535Z,10.43
2023-04-28T21:19:33.535Z,10.97
2023-04-28T21:22:02.176Z,10.92
2023-04-28T21:24:31.282Z,10.89
2023-04-28T21:26:59.563Z,10.46
2023-04-28T21:29:27.600Z,10.62
2023-04-28T21:31:55.831Z,10.62
2023-04-28T21:34:23.568Z,10.22
2023-04-28T21:36:51.344Z,10.42
2023-04-28T21:39:19.114Z,10.02
2023-04-28T21:41:48.315Z,10.75
2023-04-28T21:44:16.441Z,10.63
2023-04-28T21:46:44.198Z,10.77
2023-04-28T21:49:11.961Z,10.31
2023-04-28T21:51:42.195Z,10.43
2023-04-28T21:54:09.945Z,10.47
2023-04-28T21:56:37.657Z,10.36
2023-04-28T21:59:06.914Z,10.24
2023-04-28T22:01:35.645Z,10.39
2023-04-28T22:04:03.842Z,10.54
2023-04-28T22:06:32.470Z,10.55
2023-04-28T22:09:01.366Z,10.41
2023-04-28T22:11:29.507Z,10.69
2023-04-28T22:13:57.239Z,10.53
2023-04-28T22:16:26.484Z,10.68
2023-04-28T22:18:54.412Z,10.95
2023-04-28T22:21:22.159Z,10.53
2023-04-28T22:23:49.911Z,10.61
2023-04-28T22:26:19.159Z,10.60
2023-04-28T22:28:46.875Z,10.55
2023-04-28T22:31:14.687Z,10.57
2023-04-28T22:33:43.811Z,10.53
2023-04-28T22:36:12.025Z,10.36
2023-04-28T22:38:39.771Z,10.04
2023-04-28T22:41:07.530Z,10.52
2023-04-28T22:43:35.245Z,10.18
2023-04-28T22:46:03.039Z,9.92
2023-04-28T22:48:30.815Z,10.32
2023-04-28T22:50:59.903Z,10.49
2023-04-28T22:53:27.635Z,10.58
2023-04-28T22:55:56.738Z,10.52
2023-04-28T22:58:24.518Z,10.55
2023-04-28T23:00:52.244Z,10.98
2023-04-28T23:03:21.300Z,10.54
2023-04-28T23:05:49.151Z,10.54
2023-04-28T23:08:18.241Z,10.57
2023-04-28T23:10:46.387Z,10.68
2023-04-28T23:13:14.120Z,10.79
2023-04-28T23:15:41.860Z,10.56
2023-04-28T23:18:09.681Z,10.45
2023-04-28T23:20:37.372Z,10.03
2023-04-28T23:23:05.328Z,10.41
2023-04-28T23:25:34.432Z,10.65
2023-04-28T23:28:02.161Z,10.58
2023-04-28T23:30:29.880Z,10.27
2023-04-28T23:32:57.687Z,10.24
2023-04-28T23:35:25.580Z,10.22
2023-04-28T23:37:53.372Z,10.30
2023-04-28T23:40:21.161Z,10.33
2023-04-28T23:42:50.278Z,10.60
2023-04-28T23:45:18.091Z,10.57
2023-04-28T23:47:45.851Z,10.42
2023-04-28T23:50:13.578Z,10.71
2023-04-28T23:52:41.318Z,10.92
2023-04-28T23:55:10.422Z,10.64
2023-04-28T23:57:38.868Z,10.75
